createdAt,value
2019-04-03T00:01:58.622Z,5.70
2019-04-03T00:04:47.341Z,4.10
2019-04-03T00:07:36.461Z,5.83
2019-04-03T00:10:25.324Z,5.47
2019-04-03T00:13:14.364Z,5.60
2019-04-03T00:16:03.016Z,6.20
2019-04-03T00:18:52.108Z,6.23
2019-04-03T00:21:40.804Z,6.30
2019-04-03T00:24:30.160Z,8.60
2019-04-03T00:27:18.768Z,6.70
2019-04-03T00:30:09.727Z,9.23
2019-04-03T00:32:58.159Z,9.03
2019-04-03T00:35:46.314Z,8.27
2019-04-03T00:38:35.105Z,9.90
2019-04-03T00:41:24.735Z,7.80
2019-04-03T00:44:13.509Z,8.33
2019-04-03T00:47:02.477Z,8.17
2019-04-03T00:49:51.109Z,9.17
2019-04-03T00:52:39.677Z,8.27
2019-04-03T00:55:28.256Z,6.93
2019-04-03T00:58:36.879Z,7.33
2019-04-03T01:01:26.538Z,7.43
2019-04-03T01:04:15.569Z,7.60
2019-04-03T01:07:04.216Z,8.40
2019-04-03T01:09:52.848Z,6.80
2019-04-03T01:12:41.708Z,7.43
2019-04-03T01:15:31.607Z,9.47
2019-04-03T01:18:21.198Z,6.23
2019-04-03T01:21:09.733Z,7.47
2019-04-03T01:23:58.429Z,8.40
2019-04-03T01:26:47.154Z,8.53
2019-04-03T01:29:36.173Z,7.60
2019-04-03T01:32:24.754Z,7.80
2019-04-03T01:35:13.729Z,7.43
2019-04-03T01:38:01.880Z,8.37
2019-04-03T01:40:51.182Z,6.90
2019-04-03T01:43:40.041Z,7.03
2019-04-03T01:46:29.064Z,7.53
2019-04-03T01:49:17.652Z,6.93
2019-04-03T01:52:06.867Z,8.13
2019-04-03T01:54:56.208Z,8.13
2019-04-03T01:57:44.879Z,6.33
2019-04-03T02:00:32.937Z,8.90
2019-04-03T02:03:21.723Z,7.43
2019-04-03T02:06:10.442Z,7.57
2019-04-03T02:08:59.485Z,8.20
2019-04-03T02:11:49.395Z,6.03
2019-04-03T02:14:38.932Z,8.33
2019-04-03T02:17:27.476Z,8.17
2019-04-03T02:20:15.871Z,6.93
2019-04-03T02:23:04.451Z,6.80
2019-04-03T02:25:53.184Z,7.43
2019-04-03T02:28:41.941Z,7.43
2019-04-03T02:31:30.208Z,6.47
2019-04-03T02:34:18.969Z,7.27
2019-04-03T02:37:07.698Z,7.93
2019-04-03T02:40:00.114Z,8.87
2019-04-03T02:42:46.953Z,6.80
2019-04-03T02:45:35.933Z,9.67
2019-04-03T02:48:24.317Z,7.77
2019-04-03T02:51:13.297Z,7.70
2019-04-03T02:54:03.134Z,7.70
2019-04-03T02:56:52.003Z,7.97
2019-04-03T02:59:40.122Z,7.20
2019-04-03T03:02:28.903Z,7.30
2019-04-03T03:05:17.995Z,8.90
2019-04-03T03:08:09.151Z,8.63
2019-04-03T03:10:57.681Z,8.13
2019-04-03T03:13:46.588Z,7.90
2019-04-03T03:16:35.362Z,7.53
2019-04-03T03:19:24.932Z,9.17
2019-04-03T03:22:16.942Z,7.50
2019-04-03T03:25:05.328Z,7.10
2019-04-03T03:27:54.582Z,7.43
2019-04-03T03:30:54.397Z,7.37
2019-04-03T03:33:37.461Z,8.37
2019-04-03T03:36:25.720Z,7.50
2019-04-03T03:39:13.285Z,6.63
2019-04-03T03:42:02.112Z,8.23
2019-04-03T03:44:50.591Z,8.30
2019-04-03T03:47:39.246Z,8.00
2019-04-03T03:50:27.194Z,8.80
2019-04-03T03:53:16.122Z,8.93
2019-04-03T03:56:05.232Z,9.70
2019-04-03T03:58:54.165Z,7.30
2019-04-03T04:01:42.770Z,9.03
2019-04-03T04:04:31.733Z,6.57
2019-04-03T04:07:20.193Z,6.87
2019-04-03T04:10:09.688Z,8.30
2019-04-03T04:13:00.277Z,7.10
2019-04-03T04:15:49.202Z,9.43
2019-04-03T04:18:39.434Z,7.83
2019-04-03T04:21:28.067Z,8.43
2019-04-03T04:24:18.556Z,9.47
2019-04-03T04:27:07.012Z,8.20
2019-04-03T04:29:56.779Z,6.00
2019-04-03T04:32:46.505Z,6.40
2019-04-03T04:35:36.366Z,6.93
2019-04-03T04:38:26.828Z,8.40
2019-04-03T04:41:15.611Z,7.47
2019-04-03T04:44:04.781Z,8.20
2019-04-03T04:46:53.086Z,6.33
2019-04-03T04:49:41.451Z,9.13
2019-04-03T04:52:30.563Z,7.93
2019-04-03T04:55:19.106Z,7.20
2019-04-03T04:58:07.658Z,6.60
2019-04-03T05:00:56.687Z,7.53
2019-04-03T05:03:45.597Z,7.47
2019-04-03T05:06:34.416Z,8.47
2019-04-03T05:09:22.740Z,8.70
2019-04-03T05:12:11.334Z,7.70
2019-04-03T05:15:00.428Z,7.40
2019-04-03T05:17:50.635Z,6.35
2019-04-03T05:20:39.648Z,8.53
2019-04-03T05:23:29.089Z,6.27
2019-04-03T05:26:17.761Z,7.07
2019-04-03T05:29:08.571Z,7.43
2019-04-03T05:31:57.385Z,8.20
2019-04-03T05:34:46.526Z,8.80
2019-04-03T05:37:35.769Z,9.07
2019-04-03T05:40:26.152Z,9.60
2019-04-03T05:43:14.440Z,8.33
2019-04-03T05:46:03.843Z,7.30
2019-04-03T05:48:52.979Z,12.70
2019-04-03T05:51:41.883Z,16.87
2019-04-03T05:54:30.693Z,12.25
2019-04-03T05:57:19.774Z,10.10
2019-04-03T06:00:08.868Z,9.53
2019-04-03T06:02:58.187Z,9.50
2019-04-03T06:05:47.300Z,9.38
2019-04-03T06:08:35.930Z,8.10
2019-04-03T06:11:24.846Z,10.53
2019-04-03T06:14:13.090Z,8.93
2019-04-03T06:17:02.108Z,11.80
2019-04-03T06:19:51.283Z,10.93
2019-04-03T06:22:40.351Z,8.33
2019-04-03T06:25:30.475Z,8.50
2019-04-03T06:28:19.414Z,10.70
2019-04-03T06:31:08.898Z,13.67
2019-04-03T06:33:57.655Z,8.90
2019-04-03T06:36:46.454Z,14.53
2019-04-03T06:39:35.653Z,9.53
2019-04-03T06:42:24.893Z,16.63
2019-04-03T06:45:15.560Z,15.17
2019-04-03T06:48:05.110Z,14.23
2019-04-03T06:50:54.525Z,12.20
2019-04-03T06:53:43.504Z,14.80
2019-04-03T06:56:32.649Z,13.13
2019-04-03T06:59:21.610Z,13.90
2019-04-03T07:02:10.381Z,12.82
2019-04-03T07:05:02.359Z,10.95
2019-04-03T07:07:49.799Z,13.60
2019-04-03T07:10:40.240Z,16.80
2019-04-03T07:13:29.712Z,12.83
2019-04-03T07:16:19.399Z,11.60
2019-04-03T07:19:08.688Z,14.43
2019-04-03T07:21:57.542Z,13.80
2019-04-03T07:24:46.053Z,15.00
2019-04-03T07:27:36.596Z,11.87
2019-04-03T07:30:25.107Z,14.30
2019-04-03T07:33:13.946Z,16.23
2019-04-03T07:36:02.670Z,13.90
2019-04-03T07:38:51.983Z,11.10
2019-04-03T07:41:41.706Z,11.57
2019-04-03T07:44:31.144Z,13.00
2019-04-03T07:47:19.577Z,15.47
2019-04-03T07:50:11.241Z,10.57
2019-04-03T07:52:58.835Z,12.60
2019-04-03T07:55:47.144Z,10.60
2019-04-03T07:58:35.936Z,10.20
2019-04-03T08:01:24.381Z,11.13
2019-04-03T08:04:15.749Z,10.77
2019-04-03T08:07:03.570Z,12.63
2019-04-03T08:09:52.737Z,13.23
2019-04-03T08:12:41.800Z,12.07
2019-04-03T08:15:30.373Z,11.00
2019-04-03T08:18:21.500Z,10.40
2019-04-03T08:21:10.716Z,11.30
2019-04-03T08:23:59.513Z,11.63
2019-04-03T08:26:50.554Z,14.00
2019-04-03T08:29:39.004Z,10.27
2019-04-03T08:32:28.649Z,12.30
2019-04-03T08:35:22.280Z,10.17
2019-04-03T08:38:08.314Z,12.93
2019-04-03T08:40:58.448Z,12.30
2019-04-03T08:43:47.201Z,13.10
2019-04-03T08:46:35.801Z,12.57
2019-04-03T08:49:26.310Z,11.23
2019-04-03T08:52:15.853Z,10.63
2019-04-03T08:55:06.413Z,11.33
2019-04-03T08:57:55.270Z,13.33
2019-04-03T09:00:44.131Z,12.87
2019-04-03T09:03:32.420Z,11.37
2019-04-03T09:06:22.411Z,12.83
2019-04-03T09:09:12.126Z,11.93
2019-04-03T09:12:00.941Z,11.30
2019-04-03T09:14:49.775Z,11.80
2019-04-03T09:17:38.264Z,12.47
2019-04-03T09:20:27.048Z,11.23
2019-04-03T09:23:16.138Z,11.43
2019-04-03T09:26:04.532Z,10.77
2019-04-03T09:28:53.388Z,12.00
2019-04-03T09:31:42.070Z,11.07
2019-04-03T09:34:33.909Z,13.50
2019-04-03T09:37:21.086Z,10.63
2019-04-03T09:40:09.891Z,12.57
2019-04-03T09:42:58.564Z,9.67
2019-04-03T09:45:48.077Z,10.40
2019-04-03T09:48:37.634Z,11.77
2019-04-03T09:51:27.271Z,10.33
2019-04-03T09:54:16.176Z,11.33
2019-04-03T09:57:05.710Z,10.33
2019-04-03T09:59:54.843Z,11.17
2019-04-03T10:02:43.534Z,10.90
2019-04-03T10:05:31.755Z,15.63
2019-04-03T10:08:22.019Z,14.40
2019-04-03T10:11:10.961Z,10.77
2019-04-03T10:13:59.727Z,16.40
2019-04-03T10:16:48.654Z,8.33
2019-04-03T10:19:37.219Z,9.40
2019-04-03T10:22:26.326Z,11.57
2019-04-03T10:25:16.691Z,14.73
2019-04-03T10:28:06.829Z,10.23
2019-04-03T10:30:55.716Z,10.10
2019-04-03T10:33:44.308Z,9.60
2019-04-03T10:36:32.767Z,9.57
2019-04-03T10:39:22.209Z,10.00
2019-04-03T10:42:11.354Z,9.17
2019-04-03T10:44:59.580Z,12.27
2019-04-03T10:47:48.274Z,9.43
2019-04-03T10:50:38.062Z,7.93
2019-04-03T10:53:27.549Z,8.23
2019-04-03T10:56:16.672Z,8.90
2019-04-03T10:59:11.380Z,7.00
2019-04-03T11:01:55.440Z,11.07
2019-04-03T11:04:44.275Z,9.10
2019-04-03T11:07:32.960Z,7.67
2019-04-03T11:10:23.373Z,10.47
2019-04-03T11:13:11.395Z,7.73
2019-04-03T11:15:59.726Z,9.20
2019-04-03T11:18:58.079Z,9.20
2019-04-03T11:21:38.710Z,6.93
2019-04-03T11:24:27.810Z,6.00
2019-04-03T11:27:17.373Z,5.33
2019-04-03T11:30:10.847Z,6.20
2019-04-03T11:32:57.397Z,8.30
2019-04-03T11:35:46.201Z,5.80
2019-04-03T11:38:35.088Z,6.13
2019-04-03T11:41:24.459Z,7.77
2019-04-03T11:44:13.352Z,11.47
2019-04-03T11:47:02.664Z,7.40
2019-04-03T11:49:52.515Z,7.80
2019-04-03T11:52:41.048Z,5.97
2019-04-03T11:55:29.368Z,5.70
2019-04-03T11:58:19.793Z,4.90
2019-04-03T12:01:09.142Z,6.90
2019-04-03T12:03:57.909Z,3.30
2019-04-03T12:06:47.013Z,4.13
2019-04-03T12:09:35.966Z,5.40
2019-04-03T12:12:24.819Z,10.53
2019-04-03T12:15:16.409Z,4.33
2019-04-03T12:18:04.631Z,5.30
2019-04-03T12:20:53.981Z,4.53
2019-04-03T12:23:43.122Z,3.13
2019-04-03T12:26:32.356Z,4.23
2019-04-03T12:29:23.016Z,3.63
2019-04-03T12:32:11.936Z,4.37
2019-04-03T12:35:01.051Z,4.83
2019-04-03T12:37:51.104Z,4.20
2019-04-03T12:40:42.237Z,3.67
2019-04-03T12:43:31.146Z,4.70
2019-04-03T12:46:21.026Z,7.47
2019-04-03T12:49:09.664Z,4.27
2019-04-03T12:51:58.931Z,4.20
2019-04-03T12:54:48.770Z,4.33
2019-04-03T12:57:39.171Z,6.40
2019-04-03T13:00:27.506Z,3.40
2019-04-03T13:03:15.930Z,3.37
2019-04-03T13:06:04.925Z,3.10
2019-04-03T13:08:53.871Z,3.87
2019-04-03T13:11:42.308Z,4.53
2019-04-03T13:14:32.653Z,3.30
2019-04-03T13:17:21.940Z,2.10
2019-04-03T13:20:11.397Z,2.10
2019-04-03T13:23:00.329Z,1.47
2019-04-03T13:25:48.973Z,1.47
2019-04-03T13:28:40.250Z,2.20
2019-04-03T13:31:28.314Z,3.33
2019-04-03T13:34:17.066Z,2.27
2019-04-03T13:37:06.312Z,1.50
2019-04-03T13:39:54.341Z,1.10
2019-04-03T13:42:43.416Z,1.50
2019-04-03T13:45:32.660Z,1.73
2019-04-03T13:48:22.015Z,1.20
2019-04-03T13:51:12.476Z,1.50
2019-04-03T13:54:02.098Z,1.40
2019-04-03T13:56:53.325Z,1.13
2019-04-03T13:59:41.558Z,1.50
2019-04-03T14:02:30.919Z,1.40
2019-04-03T14:05:20.942Z,1.30
2019-04-03T14:08:12.122Z,2.53
2019-04-03T14:11:00.918Z,3.63
2019-04-03T14:13:50.040Z,2.20
2019-04-03T14:16:38.796Z,1.00
2019-04-03T14:19:27.467Z,1.50
2019-04-03T14:22:16.127Z,4.00
2019-04-03T14:25:17.487Z,1.70
2019-04-03T14:27:55.124Z,5.10
2019-04-03T14:30:44.668Z,1.80
2019-04-03T14:33:42.934Z,1.80
2019-04-03T14:36:26.491Z,1.77
2019-04-03T14:39:13.920Z,2.53
2019-04-03T14:42:03.111Z,2.37
2019-04-03T14:44:52.286Z,2.17
2019-04-03T14:47:41.829Z,1.50
2019-04-03T14:50:30.658Z,2.30
2019-04-03T14:53:20.271Z,2.33
2019-04-03T14:56:10.513Z,2.00
2019-04-03T14:58:59.922Z,4.80
2019-04-03T15:01:51.222Z,1.73
2019-04-03T15:04:39.360Z,1.37
2019-04-03T15:07:28.578Z,2.83
2019-04-03T15:10:17.586Z,4.80
2019-04-03T15:13:06.205Z,2.63
2019-04-03T15:15:54.829Z,3.00
2019-04-03T15:18:43.776Z,1.67
2019-04-03T15:21:32.863Z,3.30
2019-04-03T15:24:21.303Z,1.80
2019-04-03T15:27:10.224Z,3.23
2019-04-03T15:29:59.143Z,1.67
2019-04-03T15:32:48.886Z,2.23
2019-04-03T15:35:38.476Z,1.50
2019-04-03T15:38:27.772Z,1.73
2019-04-03T15:41:16.604Z,1.90
2019-04-03T15:44:05.963Z,1.73
2019-04-03T15:46:55.029Z,2.13
2019-04-03T15:49:43.561Z,3.00
2019-04-03T15:52:32.614Z,3.00
2019-04-03T15:55:23.809Z,1.70
2019-04-03T15:58:11.665Z,1.60
2019-04-03T16:01:00.569Z,4.00
2019-04-03T16:03:50.501Z,4.00
2019-04-03T16:06:39.671Z,2.07
2019-04-03T16:09:28.875Z,3.07
2019-04-03T16:12:17.168Z,1.83
2019-04-03T16:15:08.643Z,2.80
2019-04-03T16:17:56.738Z,2.37
2019-04-03T16:20:46.737Z,3.17
2019-04-03T16:23:38.151Z,2.40
2019-04-03T16:26:26.712Z,2.20
2019-04-03T16:29:15.390Z,2.87
2019-04-03T16:32:04.716Z,2.70
2019-04-03T16:34:54.194Z,1.90
2019-04-03T16:37:43.088Z,2.10
2019-04-03T16:40:32.348Z,2.10
2019-04-03T16:43:23.011Z,3.30
2019-04-03T16:46:11.709Z,1.10
2019-04-03T16:49:00.093Z,1.60
2019-04-03T16:51:49.310Z,1.90
2019-04-03T16:54:38.350Z,2.47
2019-04-03T16:57:27.841Z,3.37
2019-04-03T17:00:16.944Z,2.07
2019-04-03T17:03:05.579Z,1.47
2019-04-03T17:05:54.760Z,1.90
2019-04-03T17:08:43.954Z,1.67
2019-04-03T17:11:33.519Z,3.70
2019-04-03T17:14:24.405Z,2.07
2019-04-03T17:17:14.725Z,1.80
2019-04-03T17:20:04.630Z,2.03
2019-04-03T17:22:53.564Z,1.93
2019-04-03T17:25:48.142Z,1.63
2019-04-03T17:28:33.654Z,1.70
2019-04-03T17:31:23.870Z,1.47
2019-04-03T17:34:12.684Z,3.80
2019-04-03T17:37:01.871Z,2.17
2019-04-03T17:39:52.436Z,2.90
2019-04-03T17:42:41.104Z,2.23
2019-04-03T17:45:30.119Z,1.93
2019-04-03T17:48:19.332Z,2.10
2019-04-03T17:51:08.252Z,2.10
2019-04-03T17:53:57.577Z,3.73
2019-04-03T17:56:46.791Z,1.70
2019-04-03T17:59:35.739Z,2.37
2019-04-03T18:02:25.075Z,1.90
2019-04-03T18:05:16.012Z,2.90
2019-04-03T18:08:05.486Z,2.67
2019-04-03T18:10:54.871Z,2.40
2019-04-03T18:13:43.452Z,2.50
2019-04-03T18:16:32.294Z,2.40
2019-04-03T18:19:21.857Z,2.20
2019-04-03T18:22:10.876Z,4.30
2019-04-03T18:25:01.047Z,2.97
2019-04-03T18:27:50.309Z,2.23
2019-04-03T18:30:38.772Z,2.30
2019-04-03T18:33:27.968Z,2.10
2019-04-03T18:36:16.590Z,2.20
2019-04-03T18:39:09.711Z,2.20
2019-04-03T18:42:01.725Z,1.90
2019-04-03T18:44:49.968Z,2.37
2019-04-03T18:47:41.391Z,2.33
2019-04-03T18:50:29.292Z,2.00
2019-04-03T18:53:18.763Z,2.37
2019-04-03T18:56:08.413Z,4.33
2019-04-03T18:58:57.449Z,2.93
2019-04-03T19:01:46.666Z,1.70
2019-04-03T19:04:37.679Z,2.50
2019-04-03T19:07:26.979Z,1.90
2019-04-03T19:10:18.196Z,1.70
2019-04-03T19:13:06.625Z,1.70
2019-04-03T19:15:55.721Z,2.20
2019-04-03T19:18:44.343Z,2.30
2019-04-03T19:21:33.538Z,2.83
2019-04-03T19:24:24.455Z,2.87
2019-04-03T19:27:12.748Z,3.90
2019-04-03T19:30:01.963Z,2.33
2019-04-03T19:32:50.573Z,4.80
2019-04-03T19:35:38.707Z,3.00
2019-04-03T19:38:27.516Z,2.83
2019-04-03T19:41:16.646Z,2.20
2019-04-03T19:44:05.994Z,2.43
2019-04-03T19:46:54.603Z,3.10
2019-04-03T19:49:43.204Z,3.50
2019-04-03T19:52:32.158Z,13.27
2019-04-03T19:55:23.273Z,7.43
2019-04-03T19:58:11.248Z,8.30
2019-04-03T20:01:03.326Z,11.50
2019-04-03T20:03:50.216Z,7.63
2019-04-03T20:06:38.529Z,7.27
2019-04-03T20:09:26.767Z,8.13
2019-04-03T20:12:15.833Z,8.83
2019-04-03T20:15:05.695Z,8.40
2019-04-03T20:17:55.480Z,8.70
2019-04-03T20:20:44.871Z,9.35
2019-04-03T20:23:33.917Z,8.55
2019-04-03T20:26:22.139Z,8.95
2019-04-03T20:29:11.000Z,9.33
2019-04-03T20:31:59.873Z,8.10
2019-04-03T20:34:48.879Z,7.90
2019-04-03T20:37:37.729Z,9.30
2019-04-03T20:40:26.186Z,9.23
2019-04-03T20:43:15.224Z,9.58
2019-04-03T20:46:03.722Z,8.75
2019-04-03T20:48:52.394Z,10.28
2019-04-03T20:51:41.188Z,8.55
2019-04-03T20:54:29.822Z,7.62
2019-04-03T20:57:18.604Z,7.90
2019-04-03T21:00:11.924Z,7.12
2019-04-03T21:03:01.019Z,7.55
2019-04-03T21:05:49.910Z,7.70
2019-04-03T21:08:38.057Z,8.13
2019-04-03T21:11:26.471Z,7.90
2019-04-03T21:14:15.271Z,6.37
2019-04-03T21:17:04.330Z,7.47
2019-04-03T21:19:52.771Z,6.80
2019-04-03T21:22:41.531Z,7.30
2019-04-03T21:25:30.285Z,7.40
2019-04-03T21:28:18.900Z,6.50
2019-04-03T21:31:07.699Z,6.58
2019-04-03T21:33:56.481Z,6.47
2019-04-03T21:37:05.291Z,5.90
2019-04-03T21:39:54.250Z,6.25
2019-04-03T21:42:43.185Z,5.85
2019-04-03T21:45:32.108Z,5.85
2019-04-03T21:48:20.923Z,6.10
2019-04-03T21:51:09.453Z,5.90
2019-04-03T21:53:58.137Z,5.20
2019-04-03T21:56:46.806Z,5.70
2019-04-03T21:59:35.400Z,6.17
2019-04-03T22:02:24.068Z,5.87
2019-04-03T22:05:13.149Z,6.45
2019-04-03T22:08:02.014Z,5.72
2019-04-03T22:10:51.505Z,5.15
2019-04-03T22:13:39.998Z,4.55
2019-04-03T22:16:28.835Z,6.30
2019-04-03T22:19:17.849Z,6.17
2019-04-03T22:22:06.316Z,5.93
2019-04-03T22:24:55.000Z,5.95
2019-04-03T22:27:43.916Z,6.87
2019-04-03T22:30:32.660Z,5.40
2019-04-03T22:33:21.440Z,5.53
2019-04-03T22:36:09.744Z,5.33
2019-04-03T22:38:58.143Z,5.35
2019-04-03T22:41:46.213Z,4.90
2019-04-03T22:44:35.124Z,4.90
2019-04-03T22:47:25.091Z,3.92
2019-04-03T22:50:14.019Z,4.42
2019-04-03T22:53:02.931Z,4.55
2019-04-03T22:55:51.157Z,4.65
2019-04-03T22:58:39.584Z,3.87
2019-04-03T23:01:29.822Z,4.72
2019-04-03T23:04:19.590Z,4.30
2019-04-03T23:07:08.141Z,4.05
2019-04-03T23:09:57.241Z,4.15
2019-04-03T23:12:46.259Z,4.28
2019-04-03T23:15:35.236Z,3.52
2019-04-03T23:18:24.610Z,4.20
2019-04-03T23:21:13.868Z,4.53
2019-04-03T23:24:02.485Z,4.00
2019-04-03T23:26:51.121Z,4.20
2019-04-03T23:29:39.512Z,4.83
2019-04-03T23:32:28.098Z,3.62
2019-04-03T23:35:16.945Z,3.95
2019-04-03T23:38:05.660Z,4.75
2019-04-03T23:40:54.532Z,4.35
2019-04-03T23:43:43.198Z,3.90
2019-04-03T23:46:32.106Z,4.20
2019-04-03T23:49:20.976Z,3.95
2019-04-03T23:52:09.258Z,3.87
2019-04-03T23:54:57.516Z,4.00
2019-04-03T23:57:46.032Z,3.50
